Sheridan, WY

10:07 AM MDT on July 26, 2014 (GMT -0600)
Sheridan County (KSHR) Elev 3967 ft | 44.76 °N, 106.97 °W | Change Station

Current weather conditions updated 14 minutes ago

Clear
Clear
73 °F
Feels Like 73 °F
N
4
Wind Variable Wind from Variable

Today is forecast to be Cooler than yesterday.

Today
High -- | Low -- °F
--% Chance of Precip.
Yesterday
High -- | Low -- °F
Precip. -- in
5:47 AM 8:40 PM
Waning Crescent, 0% visible
Pressure 30.06 in
Visibility 10.0 miles
Clouds Clear
Dew Point 36 °F
Humidity 26%
Rainfall 0.00 in
Snow Depth 0 in
UV 6 out of 12
Pollen 6.50 out of 12
Air Quality Not available.
Flu Activity Not available.
METAR KSHR 261553Z AUTO VRB03KT 10SM CLR 23/02 A3017 RMK AO2 SLP179 T02280022

More Conditions Fewer Conditions

Pressure 30.06 in
Visibility 10.0 miles
Clouds Clear
Dew Point 36 °F
Humidity 26%
Rainfall 0.00 in
Snow Depth 0 in
UV 6 out of 12
Pollen 6.50 out of 12
Air Quality Not available.
Flu Activity Not available.
METAR KSHR 261553Z AUTO VRB03KT 10SM CLR 23/02 A3017 RMK AO2 SLP179 T02280022

More Conditions Fewer Conditions

10-Day Weather Forecast

Almanac

Astronomy

Jul. 26, 2014 Rise Set
Actual Time 5:47 AM MDT 8:40 PM MDT
Civil Twilight 5:12 AM MDT 9:15 PM MDT
Nautical Twilight 4:29 AM MDT 9:58 PM MDT
Astronomical Twilight 3:37 AM MDT 10:49 PM MDT
Moon 5:45 AM MDT 8:13 PM MDT
Length of Visible Light 16h 02m
Length of Day
14h 53m
Tomorrow will be 2m 12s shorter.
Waning Crescent, 0% of the Moon is Illuminated
Today
Waning Crescent
Jul 26
New
Aug 3
First Quarter
Aug 10
Full
Aug 17
Last Quarter

Today's Extremes

State Highs State Lows

Community

WunderPhotos

Upload Photos

1,737,623 photos uploaded!

Nearby

Snow Depth

Station Depth Elevation
Big Goose 0 in 7990 ft
Bald Mountain 0 in 9380 ft
Bear Trap Meadow 0 in 8200 ft
Beartooth Lake 0 in 9275 ft
Casper Mountain 0 in 7850 ft

Earthquake Activity

City Distance Mag. Time & Date
No recent earthquake activity has been reported nearby.
Minimum magnitude displayed is 2.5.

Coastal Water Temperatures

Place Temperature
No Stations Reporting

Nearby Weather Stations

Station Location Temp. Windchill Dew Point Humidity Wind Precip. Elev Updated Type
North Airport Area, Sheridan, WY 72.1 °F - 44 °F 36% ESE  at  0.0 mph - / hr 3917 ft 10:06 AM MDT Normal
Sheridan, WY 75.4 °F - 28 °F 17% West  at  1.0 mph 0.00 in / hr 3828 ft 10:02 AM MDT Normal
Sheridan, WY 72.9 °F - 40 °F 31% North  at  0.0 mph 0.00 in / hr 3860 ft 10:07 AM MDT Rapid Fire
Pope Meadow, North Piney, Story WY, Story, WY 66.4 °F - 41 °F 39% WNW  at  2.0 mph 0.00 in / hr 5285 ft 10:07 AM MDT Rapid Fire
HADS RAPID CREEK (RAIN) NEAR BIG HORN WY, Wolf, WY 45 °F 45 °F - - North  at  - 0.00 in / hr 7048 ft 8:30 AM MDT MADIS
HADS WEST FORK BIG GOOSE CREEK NEAR B WY, Wolf, WY 49 °F 49 °F - - North  at  - 0.00 in / hr 8399 ft 8:45 AM MDT MADIS
HADS SOUTH PINEY CREEK BELOW WILLOW P WY, Story, WY 57 °F - - - North  at  - 0.00 in / hr 8580 ft 8:45 AM MDT MADIS

Show More Stations Show Fewer Stations